createdAt,value
2017-11-26T00:00:32.195Z,2.40
2017-11-26T00:02:59.753Z,2.53
2017-11-26T00:05:27.235Z,2.17
2017-11-26T00:07:55.500Z,1.85
2017-11-26T00:10:23.739Z,2.40
2017-11-26T00:12:51.237Z,2.25
2017-11-26T00:15:18.812Z,2.42
2017-11-26T00:17:46.381Z,2.40
2017-11-26T00:20:13.875Z,1.83
2017-11-26T00:22:41.368Z,2.25
2017-11-26T00:25:09.628Z,2.85
2017-11-26T00:27:37.110Z,2.40
2017-11-26T00:30:05.564Z,2.42
2017-11-26T00:32:33.232Z,2.40
2017-11-26T00:35:00.801Z,2.70
2017-11-26T00:37:28.331Z,3.00
2017-11-26T00:39:55.858Z,3.47
2017-11-26T00:42:23.355Z,2.72
2017-11-26T00:44:50.839Z,2.80
2017-11-26T00:47:19.111Z,2.90
2017-11-26T00:49:47.352Z,2.55
2017-11-26T00:52:14.875Z,3.20
2017-11-26T00:54:42.394Z,3.60
2017-11-26T00:57:10.710Z,3.00
2017-11-26T00:59:38.181Z,3.30
2017-11-26T01:02:05.671Z,3.35
2017-11-26T01:04:33.159Z,3.20
2017-11-26T01:07:00.660Z,3.10
2017-11-26T01:09:28.256Z,2.97
2017-11-26T01:11:56.535Z,3.35
2017-11-26T01:14:24.811Z,2.95
2017-11-26T01:16:52.283Z,2.90
2017-11-26T01:19:19.772Z,3.20
2017-11-26T01:21:47.256Z,3.12
2017-11-26T01:24:24.644Z,2.92
2017-11-26T01:26:52.204Z,3.40
2017-11-26T01:29:19.753Z,3.53
2017-11-26T01:31:47.329Z,3.03
2017-11-26T01:34:14.856Z,3.17
2017-11-26T01:36:42.341Z,3.10
2017-11-26T01:39:09.840Z,3.25
2017-11-26T01:41:38.105Z,3.30
2017-11-26T01:44:06.345Z,3.35
2017-11-26T01:46:33.831Z,3.03
2017-11-26T01:49:02.283Z,3.28
2017-11-26T01:51:29.961Z,3.80
2017-11-26T01:53:58.588Z,2.97
2017-11-26T01:56:26.459Z,3.42
2017-11-26T01:58:54.011Z,2.40
2017-11-26T02:01:21.522Z,3.00
2017-11-26T02:03:59.011Z,2.83
2017-11-26T02:06:26.496Z,2.90
2017-11-26T02:08:53.985Z,2.80
2017-11-26T02:11:21.462Z,2.85
2017-11-26T02:13:49.015Z,3.30
2017-11-26T02:16:17.820Z,2.80
2017-11-26T02:18:45.585Z,3.67
2017-11-26T02:21:13.228Z,2.50
2017-11-26T02:23:40.997Z,3.15
2017-11-26T02:26:08.479Z,2.62
2017-11-26T02:28:35.957Z,3.15
2017-11-26T02:31:04.221Z,2.55
2017-11-26T02:33:43.781Z,3.25
2017-11-26T02:36:16.921Z,3.20
2017-11-26T02:38:44.393Z,3.22
2017-11-26T02:41:11.878Z,3.50
2017-11-26T02:43:40.181Z,3.45
2017-11-26T02:46:07.723Z,3.10
2017-11-26T02:48:35.306Z,2.95
2017-11-26T02:51:02.810Z,3.20
2017-11-26T02:53:30.288Z,3.62
2017-11-26T02:55:58.532Z,3.05
2017-11-26T02:58:26.020Z,3.10
2017-11-26T03:00:53.548Z,3.72
2017-11-26T03:03:21.519Z,2.58
2017-11-26T03:05:49.200Z,2.72
2017-11-26T03:08:16.780Z,2.50
2017-11-26T03:10:44.288Z,2.55
2017-11-26T03:13:11.765Z,2.67
2017-11-26T03:15:40.027Z,2.72
2017-11-26T03:18:07.522Z,2.85
2017-11-26T03:20:35.092Z,2.58
2017-11-26T03:23:02.600Z,2.67
2017-11-26T03:25:30.067Z,2.87
2017-11-26T03:27:58.328Z,2.50
2017-11-26T03:30:25.797Z,2.45
2017-11-26T03:32:54.050Z,2.33
2017-11-26T03:35:21.539Z,2.80
2017-11-26T03:37:49.026Z,2.90
2017-11-26T03:40:16.659Z,2.90
2017-11-26T03:42:44.978Z,2.50
2017-11-26T03:45:12.479Z,2.80
2017-11-26T03:47:39.980Z,2.30
2017-11-26T03:50:07.483Z,2.50
2017-11-26T03:52:34.947Z,2.83
2017-11-26T03:55:02.496Z,2.40
2017-11-26T03:57:30.131Z,2.55
2017-11-26T03:59:57.687Z,2.70
2017-11-26T04:02:25.161Z,2.55
2017-11-26T04:04:52.641Z,2.40
2017-11-26T04:07:20.123Z,2.90
2017-11-26T04:09:47.660Z,2.47
2017-11-26T04:12:15.272Z,2.83
2017-11-26T04:14:42.745Z,2.17
2017-11-26T04:17:10.236Z,2.30
2017-11-26T04:19:38.492Z,2.50
2017-11-26T04:22:05.968Z,2.40
2017-11-26T04:24:34.224Z,2.65
2017-11-26T04:27:01.826Z,1.85
2017-11-26T04:29:29.323Z,2.30
2017-11-26T04:31:56.887Z,2.20
2017-11-26T04:34:24.382Z,2.40
2017-11-26T04:36:52.627Z,2.28
2017-11-26T04:39:20.107Z,2.60
2017-11-26T04:41:48.360Z,2.00
2017-11-26T04:44:15.850Z,2.35
2017-11-26T04:46:44.200Z,2.67
2017-11-26T04:49:11.980Z,2.50
2017-11-26T04:51:40.480Z,2.28
2017-11-26T04:54:09.011Z,2.62
2017-11-26T04:56:36.604Z,2.17
2017-11-26T04:59:04.079Z,1.90
2017-11-26T05:01:31.549Z,2.22
2017-11-26T05:03:59.052Z,2.10
2017-11-26T05:06:26.523Z,2.22
2017-11-26T05:08:54.127Z,2.10
2017-11-26T05:11:21.595Z,2.33
2017-11-26T05:13:49.108Z,2.58
2017-11-26T05:16:17.364Z,2.50
2017-11-26T05:18:44.832Z,2.62
2017-11-26T05:21:12.445Z,2.55
2017-11-26T05:23:40.010Z,2.20
2017-11-26T05:26:07.558Z,2.40
2017-11-26T05:28:35.028Z,2.28
2017-11-26T05:31:02.499Z,1.90
2017-11-26T05:33:29.981Z,2.50
2017-11-26T05:35:58.507Z,2.45
2017-11-26T05:38:26.084Z,2.30
2017-11-26T05:40:53.718Z,2.33
2017-11-26T05:43:21.244Z,2.40
2017-11-26T05:45:48.752Z,2.25
2017-11-26T05:48:16.245Z,2.50
2017-11-26T05:50:43.722Z,2.05
2017-11-26T05:53:11.980Z,2.00
2017-11-26T05:55:39.454Z,2.42
2017-11-26T05:58:07.804Z,2.25
2017-11-26T06:00:35.350Z,2.00
2017-11-26T06:03:02.832Z,2.20
2017-11-26T06:05:30.316Z,2.62
2017-11-26T06:07:58.559Z,2.45
2017-11-26T06:10:26.040Z,2.05
2017-11-26T06:12:54.281Z,2.35
2017-11-26T06:15:21.757Z,2.35
2017-11-26T06:17:50.112Z,2.67
2017-11-26T06:20:17.877Z,2.05
2017-11-26T06:22:45.363Z,2.92
2017-11-26T06:25:13.616Z,2.50
2017-11-26T06:27:41.088Z,2.08
2017-11-26T06:30:08.556Z,1.90
2017-11-26T06:32:36.897Z,2.20
2017-11-26T06:35:04.431Z,1.80
2017-11-26T06:37:32.152Z,2.70
2017-11-26T06:39:59.711Z,1.90
2017-11-26T06:42:27.243Z,2.00
2017-11-26T06:44:54.732Z,2.33
2017-11-26T06:47:22.977Z,2.15
2017-11-26T06:49:50.493Z,1.70
2017-11-26T06:52:18.075Z,1.95
2017-11-26T06:54:45.611Z,2.10
2017-11-26T06:57:13.120Z,1.90
2017-11-26T06:59:41.381Z,1.95
2017-11-26T07:02:08.860Z,1.75
2017-11-26T07:04:37.145Z,2.40
2017-11-26T07:07:05.377Z,2.62
2017-11-26T07:09:32.883Z,2.30
2017-11-26T07:12:00.381Z,2.17
2017-11-26T07:14:28.140Z,2.10
2017-11-26T07:16:55.640Z,2.03
2017-11-26T07:19:23.132Z,2.00
2017-11-26T07:21:50.621Z,1.90
2017-11-26T07:24:18.112Z,2.17
2017-11-26T07:26:45.670Z,2.47
2017-11-26T07:29:13.280Z,1.85
2017-11-26T07:31:40.774Z,2.08
2017-11-26T07:34:08.296Z,2.37
2017-11-26T07:36:35.790Z,2.40
2017-11-26T07:39:03.291Z,2.35
2017-11-26T07:41:30.788Z,2.35
2017-11-26T07:43:58.335Z,2.15
2017-11-26T07:46:25.945Z,2.50
2017-11-26T07:48:53.420Z,2.50
2017-11-26T07:51:20.931Z,2.00
2017-11-26T07:53:48.427Z,2.50
2017-11-26T07:56:15.964Z,2.40
2017-11-26T07:58:44.236Z,2.30
2017-11-26T08:01:11.878Z,2.42
2017-11-26T08:03:39.389Z,2.45
2017-11-26T08:06:06.895Z,1.80
2017-11-26T08:08:34.379Z,2.60
2017-11-26T08:11:02.657Z,2.40
2017-11-26T08:13:30.994Z,2.30
2017-11-26T08:15:58.487Z,2.15
2017-11-26T08:18:26.855Z,2.28
2017-11-26T08:20:54.522Z,2.20
2017-11-26T08:23:21.983Z,2.83
2017-11-26T08:25:50.244Z,2.15
2017-11-26T08:28:17.735Z,2.12
2017-11-26T08:30:45.224Z,2.15
2017-11-26T08:33:12.738Z,2.50
2017-11-26T08:35:40.991Z,2.33
2017-11-26T08:38:08.546Z,2.25
2017-11-26T08:40:36.075Z,3.67
2017-11-26T08:43:03.552Z,2.05
2017-11-26T08:45:31.029Z,2.78
2017-11-26T08:47:58.522Z,2.87
2017-11-26T08:50:26.024Z,2.47
2017-11-26T08:52:53.563Z,2.55
2017-11-26T08:55:21.110Z,2.65
2017-11-26T08:57:48.580Z,2.20
2017-11-26T09:00:16.072Z,2.60
2017-11-26T09:02:43.558Z,2.55
2017-11-26T09:05:12.020Z,2.45
2017-11-26T09:07:50.384Z,3.00
2017-11-26T09:10:17.886Z,2.40
2017-11-26T09:12:46.221Z,3.10
2017-11-26T09:15:13.684Z,2.22
2017-11-26T09:17:41.213Z,2.30
2017-11-26T09:20:08.678Z,2.60
2017-11-26T09:22:36.169Z,2.45
2017-11-26T09:25:03.653Z,2.65
2017-11-26T09:27:31.116Z,2.70
2017-11-26T09:29:59.391Z,2.50
2017-11-26T09:32:27.777Z,2.90
2017-11-26T09:34:56.042Z,2.58
2017-11-26T09:37:24.291Z,2.78
2017-11-26T09:39:51.774Z,2.95
2017-11-26T09:42:20.062Z,2.85
2017-11-26T09:44:48.408Z,2.53
2017-11-26T09:47:15.907Z,2.60
2017-11-26T09:49:43.389Z,2.80
2017-11-26T09:52:10.951Z,2.45
2017-11-26T09:54:38.439Z,4.75
2017-11-26T09:57:06.020Z,2.37
2017-11-26T09:59:33.475Z,2.50
2017-11-26T10:02:01.967Z,2.20
2017-11-26T10:04:30.225Z,3.95
2017-11-26T10:06:57.725Z,2.20
2017-11-26T10:09:25.198Z,2.30
2017-11-26T10:11:52.791Z,2.50
2017-11-26T10:14:20.288Z,2.35
2017-11-26T10:16:48.499Z,2.33
2017-11-26T10:19:15.996Z,2.72
2017-11-26T10:21:44.240Z,2.08
2017-11-26T10:24:11.739Z,2.50
2017-11-26T10:26:39.241Z,1.98
2017-11-26T10:29:06.728Z,2.40
2017-11-26T10:31:34.223Z,2.03
2017-11-26T10:34:01.716Z,1.92
2017-11-26T10:36:29.212Z,2.08
2017-11-26T10:38:57.577Z,2.10
2017-11-26T10:41:25.031Z,2.50
2017-11-26T10:43:52.603Z,2.53
2017-11-26T10:46:20.091Z,4.22
2017-11-26T10:48:47.746Z,3.25
2017-11-26T10:51:15.250Z,2.72
2017-11-26T10:53:42.711Z,3.50
2017-11-26T10:56:10.211Z,3.25
2017-11-26T10:58:37.789Z,2.83
2017-11-26T11:01:05.289Z,2.28
2017-11-26T11:03:32.873Z,2.90
2017-11-26T11:06:00.464Z,3.75
2017-11-26T11:08:27.956Z,2.22
2017-11-26T11:10:55.469Z,1.77
2017-11-26T11:13:22.960Z,2.30
2017-11-26T11:15:51.271Z,2.03
2017-11-26T11:18:19.657Z,1.75
2017-11-26T11:20:47.932Z,2.67
2017-11-26T11:23:16.400Z,1.70
2017-11-26T11:25:43.883Z,2.05
2017-11-26T11:28:11.384Z,2.83
2017-11-26T11:30:38.885Z,1.98
2017-11-26T11:33:06.688Z,1.65
2017-11-26T11:35:34.152Z,2.20
2017-11-26T11:38:01.649Z,1.83
2017-11-26T11:40:29.128Z,2.20
2017-11-26T11:42:57.374Z,2.03
2017-11-26T11:45:24.885Z,2.20
2017-11-26T11:47:52.714Z,2.20
2017-11-26T11:50:20.965Z,2.00
2017-11-26T11:52:48.454Z,2.20
2017-11-26T11:55:16.724Z,1.73
2017-11-26T11:57:44.965Z,3.62
2017-11-26T12:00:12.462Z,4.10
2017-11-26T12:02:40.712Z,3.55
2017-11-26T12:05:08.295Z,2.75
2017-11-26T12:07:35.794Z,3.67
2017-11-26T12:10:03.341Z,2.20
2017-11-26T12:12:30.820Z,2.80
2017-11-26T12:14:58.351Z,2.50
2017-11-26T12:17:35.781Z,2.15
2017-11-26T12:20:03.450Z,2.40
2017-11-26T12:22:30.949Z,2.00
2017-11-26T12:24:59.040Z,2.08
2017-11-26T12:27:26.533Z,1.95
2017-11-26T12:29:54.153Z,2.00
2017-11-26T12:32:21.640Z,1.75
2017-11-26T12:34:49.244Z,1.90
2017-11-26T12:37:16.733Z,1.87
2017-11-26T12:39:44.472Z,1.95
2017-11-26T12:42:12.722Z,1.75
2017-11-26T12:44:40.293Z,2.12
2017-11-26T12:47:08.555Z,1.90
2017-11-26T12:49:36.827Z,1.83
2017-11-26T12:52:05.149Z,1.83
2017-11-26T12:54:32.631Z,1.60
2017-11-26T12:57:00.273Z,2.58
2017-11-26T12:59:27.738Z,2.37
2017-11-26T13:01:55.281Z,2.25
2017-11-26T13:04:22.768Z,1.77
2017-11-26T13:06:50.279Z,1.60
2017-11-26T13:09:18.712Z,1.70
2017-11-26T13:11:46.287Z,2.10
2017-11-26T13:14:13.894Z,2.00
2017-11-26T13:16:41.465Z,2.15
2017-11-26T13:19:08.932Z,1.67
2017-11-26T13:21:36.448Z,2.50
2017-11-26T13:24:04.726Z,1.70
2017-11-26T13:26:32.208Z,2.10
2017-11-26T13:28:59.718Z,2.20
2017-11-26T13:31:27.977Z,1.95
2017-11-26T13:33:55.583Z,1.60
2017-11-26T13:36:23.055Z,1.75
2017-11-26T13:38:50.642Z,1.65
2017-11-26T13:41:18.123Z,1.90
2017-11-26T13:43:46.450Z,1.90
2017-11-26T13:46:13.932Z,2.10
2017-11-26T13:48:41.507Z,1.85
2017-11-26T13:51:09.785Z,1.55
2017-11-26T13:53:37.288Z,1.40
2017-11-26T13:56:04.774Z,1.55
2017-11-26T13:58:32.362Z,1.55
2017-11-26T14:01:00.635Z,1.80
2017-11-26T14:03:28.174Z,1.77
2017-11-26T14:05:55.680Z,1.50
2017-11-26T14:08:23.996Z,1.60
2017-11-26T14:10:51.485Z,2.00
2017-11-26T14:13:19.084Z,2.05
2017-11-26T14:15:46.576Z,2.10
2017-11-26T14:18:14.105Z,1.75
2017-11-26T14:20:41.585Z,1.60
2017-11-26T14:23:09.230Z,1.70
2017-11-26T14:25:36.711Z,1.40
2017-11-26T14:28:04.368Z,1.40
2017-11-26T14:30:31.916Z,2.08
2017-11-26T14:32:59.417Z,2.10
2017-11-26T14:35:26.942Z,2.12
2017-11-26T14:37:54.483Z,1.52
2017-11-26T14:40:22.049Z,1.50
2017-11-26T14:42:49.646Z,1.60
2017-11-26T14:45:17.177Z,1.98
2017-11-26T14:47:44.648Z,4.60
2017-11-26T14:50:12.136Z,3.30
2017-11-26T14:52:41.194Z,3.03
2017-11-26T14:55:08.720Z,2.12
2017-11-26T14:57:36.199Z,2.10
2017-11-26T15:00:03.761Z,2.28
2017-11-26T15:02:32.867Z,1.98
2017-11-26T15:05:00.440Z,1.67
2017-11-26T15:07:27.940Z,2.08
2017-11-26T15:09:55.433Z,2.17
2017-11-26T15:12:22.923Z,1.70
2017-11-26T15:14:51.237Z,2.20
2017-11-26T15:17:18.778Z,1.85
2017-11-26T15:19:46.327Z,1.73
2017-11-26T15:22:14.580Z,2.08
2017-11-26T15:24:42.085Z,1.70
2017-11-26T15:27:09.565Z,1.75
2017-11-26T15:29:37.089Z,1.77
2017-11-26T15:32:04.671Z,1.67
2017-11-26T15:34:32.250Z,1.62
2017-11-26T15:36:59.762Z,2.25
2017-11-26T15:39:28.013Z,1.50
2017-11-26T15:41:56.374Z,1.40
2017-11-26T15:44:23.868Z,1.30
2017-11-26T15:46:51.397Z,1.90
2017-11-26T15:49:28.804Z,1.83
2017-11-26T15:51:56.424Z,3.12
2017-11-26T15:54:23.979Z,1.90
2017-11-26T15:56:51.636Z,2.33
2017-11-26T15:59:19.278Z,2.10
2017-11-26T16:01:46.776Z,2.58
2017-11-26T16:04:14.264Z,1.60
2017-11-26T16:06:42.510Z,1.83
2017-11-26T16:09:10.031Z,1.65
2017-11-26T16:11:37.704Z,1.45
2017-11-26T16:14:05.429Z,1.77
2017-11-26T16:16:33.112Z,1.70
2017-11-26T16:19:00.601Z,1.60
2017-11-26T16:21:28.198Z,1.80
2017-11-26T16:23:56.524Z,1.83
2017-11-26T16:26:24.020Z,1.70
2017-11-26T16:28:52.432Z,2.00
2017-11-26T16:31:19.994Z,2.00
2017-11-26T16:33:47.553Z,1.92
2017-11-26T16:36:15.290Z,1.77
2017-11-26T16:38:43.526Z,1.70
2017-11-26T16:41:11.069Z,2.40
2017-11-26T16:43:38.561Z,1.83
2017-11-26T16:46:06.989Z,2.03
2017-11-26T16:48:34.484Z,1.90
2017-11-26T16:51:02.065Z,2.05
2017-11-26T16:53:30.420Z,1.60
2017-11-26T16:55:58.049Z,1.85
2017-11-26T16:58:25.675Z,1.62
2017-11-26T17:00:53.907Z,1.70
2017-11-26T17:03:21.695Z,1.70
2017-11-26T17:05:50.056Z,2.00
2017-11-26T17:08:17.547Z,2.00
2017-11-26T17:10:45.854Z,2.15
2017-11-26T17:13:13.394Z,2.28
2017-11-26T17:15:40.928Z,2.90
2017-11-26T17:18:09.228Z,1.75
2017-11-26T17:20:36.745Z,2.00
2017-11-26T17:23:04.228Z,2.00
2017-11-26T17:25:32.469Z,3.47
2017-11-26T17:28:00.064Z,2.25
2017-11-26T17:30:28.424Z,2.15
2017-11-26T17:32:56.749Z,1.83
2017-11-26T17:35:24.388Z,2.37
2017-11-26T17:37:51.882Z,2.05
2017-11-26T17:40:19.443Z,2.40
2017-11-26T17:42:46.924Z,2.65
2017-11-26T17:45:14.464Z,2.03
2017-11-26T17:47:42.204Z,2.92
2017-11-26T17:50:09.878Z,2.17
2017-11-26T17:52:37.497Z,2.22
2017-11-26T17:55:04.996Z,2.33
2017-11-26T17:57:32.537Z,2.10
2017-11-26T18:00:00.012Z,2.28
2017-11-26T18:02:27.648Z,2.30
2017-11-26T18:04:55.300Z,2.33
2017-11-26T18:07:22.807Z,2.45
2017-11-26T18:09:51.060Z,2.47
2017-11-26T18:12:18.652Z,2.58
2017-11-26T18:14:46.176Z,2.40
2017-11-26T18:17:13.703Z,2.70
2017-11-26T18:19:41.280Z,2.55
2017-11-26T18:22:08.821Z,3.08
2017-11-26T18:24:36.401Z,2.47
2017-11-26T18:27:03.947Z,2.10
2017-11-26T18:29:31.440Z,2.53
2017-11-26T18:31:58.939Z,2.60
2017-11-26T18:34:27.459Z,2.10
2017-11-26T18:36:55.120Z,2.28
2017-11-26T18:39:22.716Z,2.30
2017-11-26T18:41:50.309Z,3.65
2017-11-26T18:44:17.897Z,2.37
2017-11-26T18:46:45.472Z,2.87
2017-11-26T18:49:13.020Z,2.50
2017-11-26T18:51:40.555Z,2.80
2017-11-26T18:54:08.050Z,2.50
2017-11-26T18:56:35.544Z,2.70
2017-11-26T18:59:03.807Z,2.67
2017-11-26T19:01:31.364Z,2.42
2017-11-26T19:03:58.952Z,2.80
2017-11-26T19:06:27.331Z,2.22
2017-11-26T19:08:55.678Z,2.40
2017-11-26T19:11:23.173Z,2.67
2017-11-26T19:13:50.655Z,2.20
2017-11-26T19:16:18.142Z,2.67
2017-11-26T19:18:45.817Z,3.03
2017-11-26T19:21:14.817Z,2.95
2017-11-26T19:23:43.092Z,2.83
2017-11-26T19:26:11.440Z,2.62
2017-11-26T19:28:38.939Z,2.70
2017-11-26T19:31:06.554Z,2.87
2017-11-26T19:33:34.081Z,2.70
2017-11-26T19:36:01.574Z,2.45
2017-11-26T19:38:29.109Z,2.70
2017-11-26T19:40:56.697Z,2.40
2017-11-26T19:43:24.248Z,2.37
2017-11-26T19:45:51.863Z,2.45
2017-11-26T19:48:19.373Z,2.30
2017-11-26T19:50:46.848Z,2.35
2017-11-26T19:53:15.108Z,2.40
2017-11-26T19:55:42.697Z,2.60
2017-11-26T19:58:10.510Z,2.70
2017-11-26T20:00:38.111Z,2.80
2017-11-26T20:03:05.653Z,2.50
2017-11-26T20:05:33.176Z,2.70
2017-11-26T20:08:00.680Z,3.35
2017-11-26T20:10:29.102Z,2.37
2017-11-26T20:12:56.873Z,2.55
2017-11-26T20:15:24.485Z,2.70
2017-11-26T20:17:52.804Z,2.50
2017-11-26T20:20:20.339Z,2.30
2017-11-26T20:22:48.575Z,2.45
2017-11-26T20:25:16.275Z,2.55
2017-11-26T20:27:43.850Z,2.62
2017-11-26T20:30:11.489Z,2.22
2017-11-26T20:32:39.796Z,2.42
2017-11-26T20:35:07.337Z,2.35
2017-11-26T20:37:34.910Z,2.30
2017-11-26T20:40:02.689Z,2.55
2017-11-26T20:42:30.337Z,2.45
2017-11-26T20:44:57.856Z,2.67
2017-11-26T20:47:26.214Z,2.30
2017-11-26T20:49:53.699Z,2.35
2017-11-26T20:52:21.291Z,2.50
2017-11-26T20:54:48.797Z,2.30
2017-11-26T20:57:16.305Z,2.37
2017-11-26T20:59:43.792Z,2.50
2017-11-26T21:02:11.414Z,2.60
2017-11-26T21:04:39.137Z,2.65
2017-11-26T21:07:06.611Z,2.47
2017-11-26T21:09:34.868Z,3.05
2017-11-26T21:12:03.128Z,2.17
2017-11-26T21:14:30.640Z,2.50
2017-11-26T21:16:58.132Z,2.47
2017-11-26T21:19:25.780Z,2.55
2017-11-26T21:21:53.363Z,1.80
2017-11-26T21:24:20.852Z,3.20
2017-11-26T21:26:49.140Z,2.35
2017-11-26T21:29:17.648Z,2.40
2017-11-26T21:31:45.149Z,2.30
2017-11-26T21:34:13.468Z,2.12
2017-11-26T21:36:41.001Z,2.17
2017-11-26T21:39:09.371Z,2.80
2017-11-26T21:41:37.836Z,2.45
2017-11-26T21:44:05.484Z,2.22
2017-11-26T21:46:32.958Z,2.55
2017-11-26T21:49:00.429Z,2.17
2017-11-26T21:51:28.680Z,2.33
2017-11-26T21:53:56.163Z,2.50
2017-11-26T21:56:24.432Z,2.85
2017-11-26T21:58:52.901Z,2.95
2017-11-26T22:01:20.611Z,2.40
2017-11-26T22:03:48.227Z,2.45
2017-11-26T22:06:15.716Z,2.90
2017-11-26T22:08:43.182Z,2.65
2017-11-26T22:11:10.664Z,2.40
2017-11-26T22:13:38.222Z,2.90
2017-11-26T22:16:05.760Z,3.65
2017-11-26T22:18:33.250Z,3.75
2017-11-26T22:21:00.832Z,4.15
2017-11-26T22:23:28.315Z,3.67
2017-11-26T22:25:55.795Z,3.42
2017-11-26T22:28:23.388Z,3.35
2017-11-26T22:30:51.017Z,3.25
2017-11-26T22:33:18.519Z,4.35
2017-11-26T22:35:46.028Z,3.35
2017-11-26T22:38:13.520Z,3.47
2017-11-26T22:40:40.996Z,4.12
2017-11-26T22:43:08.609Z,2.90
2017-11-26T22:45:36.381Z,4.00
2017-11-26T22:48:03.891Z,2.92
2017-11-26T22:50:32.196Z,3.03
2017-11-26T22:52:59.697Z,3.22
2017-11-26T22:55:27.180Z,2.70
2017-11-26T22:57:55.417Z,3.00
2017-11-26T23:00:22.937Z,3.08
2017-11-26T23:02:50.508Z,3.12
2017-11-26T23:05:18.068Z,2.80
2017-11-26T23:07:45.535Z,3.22
2017-11-26T23:10:13.012Z,3.60
2017-11-26T23:12:40.491Z,3.25
2017-11-26T23:15:08.740Z,4.32
2017-11-26T23:17:36.262Z,3.25
2017-11-26T23:20:03.838Z,3.28
2017-11-26T23:22:31.364Z,3.47
2017-11-26T23:24:59.587Z,3.30
2017-11-26T23:27:27.076Z,2.97
2017-11-26T23:29:54.555Z,3.70
2017-11-26T23:32:22.086Z,2.97
2017-11-26T23:34:50.506Z,2.90
2017-11-26T23:37:19.197Z,3.05
2017-11-26T23:39:46.965Z,3.45
2017-11-26T23:42:14.848Z,2.87
2017-11-26T23:44:42.472Z,2.83
2017-11-26T23:47:09.985Z,3.72
2017-11-26T23:49:37.475Z,3.20
2017-11-26T23:52:05.746Z,3.40
2017-11-26T23:54:33.342Z,3.28
2017-11-26T23:57:00.979Z,3.30
2017-11-26T23:59:29.333Z,4.07
